sensor_id;sensor_type;location;lat;lon;timestamp;pressure;altitude;pressure_sealevel;temperature;humidity
19890;BME280;10107;51.198;6.824;2023-05-20T00:03:57;-21669.00;;;13.39;68.95
19890;BME280;10107;51.198;6.824;2023-05-20T00:07:59;-21667.69;;;13.34;69.86
19890;BME280;10107;51.198;6.824;2023-05-20T00:12:04;-21667.16;;;13.32;70.08
19890;BME280;10107;51.198;6.824;2023-05-20T00:16:07;-21666.63;;;13.30;70.22
19890;BME280;10107;51.198;6.824;2023-05-20T00:20:10;-21665.84;;;13.26;70.40
19890;BME280;10107;51.198;6.824;2023-05-20T00:24:11;-21664.91;;;13.23;70.92
19890;BME280;10107;51.198;6.824;2023-05-20T00:28:13;-21664.25;;;13.20;70.78
19890;BME280;10107;51.198;6.824;2023-05-20T00:32:17;-21663.47;;;13.17;70.84
19890;BME280;10107;51.198;6.824;2023-05-20T00:36:18;-21662.28;;;13.13;71.00
19890;BME280;10107;51.198;6.824;2023-05-20T00:40:21;-21660.94;;;13.07;71.73
19890;BME280;10107;51.198;6.824;2023-05-20T00:44:24;-21659.50;;;13.02;72.28
19890;BME280;10107;51.198;6.824;2023-05-20T00:48:30;-21658.03;;;12.96;72.80
19890;BME280;10107;51.198;6.824;2023-05-20T00:52:34;-21657.13;;;12.93;73.04
19890;BME280;10107;51.198;6.824;2023-05-20T00:56:36;-21656.84;;;12.92;73.20
19890;BME280;10107;51.198;6.824;2023-05-20T01:00:38;-21656.06;;;12.88;73.72
19890;BME280;10107;51.198;6.824;2023-05-20T01:04:42;-21655.00;;;12.84;73.92
19890;BME280;10107;51.198;6.824;2023-05-20T01:08:46;-21653.28;;;12.78;74.34
19890;BME280;10107;51.198;6.824;2023-05-20T01:12:53;-21651.44;;;12.71;74.98
19890;BME280;10107;51.198;6.824;2023-05-20T01:16:57;-21650.53;;;12.67;75.44
19890;BME280;10107;51.198;6.824;2023-05-20T01:21:03;-21649.47;;;12.63;76.05
19890;BME280;10107;51.198;6.824;2023-05-20T01:25:08;-21647.63;;;12.56;77.09
19890;BME280;10107;51.198;6.824;2023-05-20T01:29:09;-21645.50;;;12.47;77.27
19890;BME280;10107;51.198;6.824;2023-05-20T01:33:14;-21643.66;;;12.40;78.56
19890;BME280;10107;51.198;6.824;2023-05-20T01:37:17;-21642.22;;;12.35;78.54
19890;BME280;10107;51.198;6.824;2023-05-20T01:41:22;-21640.09;;;12.26;79.24
19890;BME280;10107;51.198;6.824;2023-05-20T01:45:27;-21638.38;;;12.20;79.66
19890;BME280;10107;51.198;6.824;2023-05-20T01:49:28;-21636.53;;;12.13;80.40
19890;BME280;10107;51.198;6.824;2023-05-20T01:53:30;-21635.06;;;12.07;80.72
19890;BME280;10107;51.198;6.824;2023-05-20T01:57:33;-21634.00;;;12.03;81.57
19890;BME280;10107;51.198;6.824;2023-05-20T02:01:35;-21632.81;;;11.98;81.99
19890;BME280;10107;51.198;6.824;2023-05-20T02:05:37;-21632.31;;;11.96;81.42
19890;BME280;10107;51.198;6.824;2023-05-20T02:09:39;-21631.50;;;11.93;81.45
19890;BME280;10107;51.198;6.824;2023-05-20T02:13:42;-21630.84;;;11.91;82.67
19890;BME280;10107;51.198;6.824;2023-05-20T02:17:44;-21629.13;;;11.84;83.00
19890;BME280;10107;51.198;6.824;2023-05-20T02:21:48;-21627.66;;;11.78;82.84
19890;BME280;10107;51.198;6.824;2023-05-20T02:25:50;-21627.53;;;11.78;83.40
19890;BME280;10107;51.198;6.824;2023-05-20T02:29:53;-21626.75;;;11.75;83.98
19890;BME280;10107;51.198;6.824;2023-05-20T02:33:55;-21625.69;;;11.71;83.57
19890;BME280;10107;51.198;6.824;2023-05-20T02:37:57;-21624.88;;;11.67;84.20
19890;BME280;10107;51.198;6.824;2023-05-20T02:41:58;-21623.31;;;11.61;85.80
19890;BME280;10107;51.198;6.824;2023-05-20T02:46:01;-21621.97;;;11.56;85.66
19890;BME280;10107;51.198;6.824;2023-05-20T02:50:04;-21620.91;;;11.52;86.29
19890;BME280;10107;51.198;6.824;2023-05-20T02:54:06;-21620.13;;;11.49;86.40
19890;BME280;10107;51.198;6.824;2023-05-20T02:58:08;-21619.59;;;11.47;87.20
19890;BME280;10107;51.198;6.824;2023-05-20T03:02:11;-21618.81;;;11.44;87.06
19890;BME280;10107;51.198;6.824;2023-05-20T03:06:13;-21618.53;;;11.43;87.77
19890;BME280;10107;51.198;6.824;2023-05-20T03:10:15;-21617.47;;;11.39;88.01
19890;BME280;10107;51.198;6.824;2023-05-20T03:14:18;-21616.94;;;11.37;88.18
19890;BME280;10107;51.198;6.824;2023-05-20T03:18:21;-21616.28;;;11.34;87.78
19890;BME280;10107;51.198;6.824;2023-05-20T03:22:22;-21616.16;;;11.34;88.89
19890;BME280;10107;51.198;6.824;2023-05-20T03:26:24;-21615.09;;;11.29;88.78
19890;BME280;10107;51.198;6.824;2023-05-20T03:30:26;-21614.19;;;11.26;88.60
19890;BME280;10107;51.198;6.824;2023-05-20T03:34:31;-21613.13;;;11.22;88.84
19890;BME280;10107;51.198;6.824;2023-05-20T03:38:34;-21611.66;;;11.16;89.86
19890;BME280;10107;51.198;6.824;2023-05-20T03:42:36;-21611.66;;;11.16;90.75
19890;BME280;10107;51.198;6.824;2023-05-20T03:46:39;-21612.59;;;11.20;90.01
19890;BME280;10107;51.198;6.824;2023-05-20T03:50:43;-21613.25;;;11.22;90.40
19890;BME280;10107;51.198;6.824;2023-05-20T03:54:45;-21614.44;;;11.27;89.94
19890;BME280;10107;51.198;6.824;2023-05-20T03:58:47;-21615.38;;;11.30;88.67
19890;BME280;10107;51.198;6.824;2023-05-20T04:02:48;-21615.91;;;11.33;88.88
19890;BME280;10107;51.198;6.824;2023-05-20T04:06:53;-21617.75;;;11.40;88.29
19890;BME280;10107;51.198;6.824;2023-05-20T04:10:55;-21619.88;;;11.48;87.67
19890;BME280;10107;51.198;6.824;2023-05-20T04:14:57;-21623.56;;;11.62;87.37
19890;BME280;10107;51.198;6.824;2023-05-20T04:19:01;-21627.00;;;11.76;84.96
19890;BME280;10107;51.198;6.824;2023-05-20T04:23:05;-21630.19;;;11.88;85.03
19890;BME280;10107;51.198;6.824;2023-05-20T04:27:07;-21634.53;;;12.05;84.18
19890;BME280;10107;51.198;6.824;2023-05-20T04:31:10;-21638.78;;;12.21;84.17
19890;BME280;10107;51.198;6.824;2023-05-20T04:35:13;-21641.94;;;12.34;82.59
19890;BME280;10107;51.198;6.824;2023-05-20T04:39:18;-21646.81;;;12.53;82.09
19890;BME280;10107;51.198;6.824;2023-05-20T04:43:25;-21652.50;;;12.75;80.82
19890;BME280;10107;51.198;6.824;2023-05-20T04:47:29;-21658.19;;;12.97;79.93
19890;BME280;10107;51.198;6.824;2023-05-20T04:51:31;-21663.31;;;13.17;78.43
19890;BME280;10107;51.198;6.824;2023-05-20T04:55:35;-21668.34;;;13.36;76.52
19890;BME280;10107;51.198;6.824;2023-05-20T04:59:38;-21676.00;;;13.66;75.75
19890;BME280;10107;51.198;6.824;2023-05-20T05:03:40;-21687.06;;;14.09;73.76
19890;BME280;10107;51.198;6.824;2023-05-20T05:07:42;-21737.16;;;16.04;64.48
19890;BME280;10107;51.198;6.824;2023-05-20T05:11:46;-21789.44;;;18.09;56.58
19890;BME280;10107;51.198;6.824;2023-05-20T05:15:56;-21833.34;;;19.82;48.38
19890;BME280;10107;51.198;6.824;2023-05-20T05:19:59;-21857.19;;;20.75;45.12
19890;BME280;10107;51.198;6.824;2023-05-20T05:24:05;-21873.84;;;21.41;42.20
19890;BME280;10107;51.198;6.824;2023-05-20T05:28:10;-21893.06;;;22.17;40.95
19890;BME280;10107;51.198;6.824;2023-05-20T05:32:11;-21910.47;;;22.86;38.98
19890;BME280;10107;51.198;6.824;2023-05-20T05:36:14;-21904.88;;;22.64;39.68
19890;BME280;10107;51.198;6.824;2023-05-20T05:40:16;-21924.22;;;23.40;37.87
19890;BME280;10107;51.198;6.824;2023-05-20T05:44:20;-21936.66;;;23.89;36.33
19890;BME280;10107;51.198;6.824;2023-05-20T05:48:22;-21933.66;;;23.78;36.73
19890;BME280;10107;51.198;6.824;2023-05-20T05:52:25;-21939.50;;;24.01;36.20
19890;BME280;10107;51.198;6.824;2023-05-20T05:56:26;-21972.06;;;25.30;34.59
19890;BME280;10107;51.198;6.824;2023-05-20T06:00:31;-21999.00;;;26.37;32.69
19890;BME280;10107;51.198;6.824;2023-05-20T06:04:33;-22004.31;;;26.58;32.12
19890;BME280;10107;51.198;6.824;2023-05-20T06:08:34;-22004.56;;;26.59;31.91
19890;BME280;10107;51.198;6.824;2023-05-20T06:12:36;-22022.19;;;27.30;31.30
19890;BME280;10107;51.198;6.824;2023-05-20T06:16:39;-22036.56;;;27.87;30.27
19890;BME280;10107;51.198;6.824;2023-05-20T06:20:42;-22051.97;;;28.49;29.43
19890;BME280;10107;51.198;6.824;2023-05-20T06:24:43;-21997.22;;;26.30;31.85
19890;BME280;10107;51.198;6.824;2023-05-20T06:28:46;-21962.91;;;24.94;34.49
19890;BME280;10107;51.198;6.824;2023-05-20T06:32:49;-21929.53;;;23.61;36.28
19890;BME280;10107;51.198;6.824;2023-05-20T06:36:51;-21880.22;;;21.66;40.62
19890;BME280;10107;51.198;6.824;2023-05-20T06:40:53;-21861.63;;;20.93;43.37
19890;BME280;10107;51.198;6.824;2023-05-20T06:44:55;-21872.41;;;21.35;43.06
19890;BME280;10107;51.198;6.824;2023-05-20T06:49:18;-21876.56;;;21.52;43.02
19890;BME280;10107;51.198;6.824;2023-05-20T06:53:20;-21840.25;;;20.09;46.05
19890;BME280;10107;51.198;6.824;2023-05-20T06:57:21;-21823.41;;;19.43;49.09
19890;BME280;10107;51.198;6.824;2023-05-20T07:01:23;-21808.00;;;18.82;50.66
19890;BME280;10107;51.198;6.824;2023-05-20T07:05:27;-21791.81;;;18.18;52.87
19890;BME280;10107;51.198;6.824;2023-05-20T07:09:28;-21774.91;;;17.52;55.65
19890;BME280;10107;51.198;6.824;2023-05-20T07:13:30;-21772.03;;;17.41;56.98
19890;BME280;10107;51.198;6.824;2023-05-20T07:17:32;-21760.38;;;16.95;57.92
19890;BME280;10107;51.198;6.824;2023-05-20T07:21:36;-21761.16;;;16.98;58.92
19890;BME280;10107;51.198;6.824;2023-05-20T07:25:43;-21758.28;;;16.87;58.49
19890;BME280;10107;51.198;6.824;2023-05-20T07:29:45;-21759.19;;;16.91;59.23
19890;BME280;10107;51.198;6.824;2023-05-20T07:33:47;-21766.41;;;17.19;59.00
19890;BME280;10107;51.198;6.824;2023-05-20T07:37:50;-21764.69;;;17.12;57.87
19890;BME280;10107;51.198;6.824;2023-05-20T07:41:52;-21761.56;;;17.00;58.77
19890;BME280;10107;51.198;6.824;2023-05-20T07:45:54;-21767.19;;;17.22;58.45
19890;BME280;10107;51.198;6.824;2023-05-20T07:49:56;-21765.34;;;17.15;58.79
19890;BME280;10107;51.198;6.824;2023-05-20T07:53:59;-21771.66;;;17.39;58.54
19890;BME280;10107;51.198;6.824;2023-05-20T07:58:01;-21798.47;;;18.45;55.69
19890;BME280;10107;51.198;6.824;2023-05-20T08:02:04;-21820.81;;;19.32;52.30
19890;BME280;10107;51.198;6.824;2023-05-20T08:06:06;-21826.16;;;19.53;51.79
19890;BME280;10107;51.198;6.824;2023-05-20T08:10:10;-21837.38;;;19.97;50.78
19890;BME280;10107;51.198;6.824;2023-05-20T08:14:12;-21829.94;;;19.68;50.51
19890;BME280;10107;51.198;6.824;2023-05-20T08:18:17;-21833.47;;;19.82;50.68
19890;BME280;10107;51.198;6.824;2023-05-20T08:22:19;-21834.38;;;19.86;50.58
19890;BME280;10107;51.198;6.824;2023-05-20T08:26:22;-21828.25;;;19.62;51.55
19890;BME280;10107;51.198;6.824;2023-05-20T08:30:24;-21822.25;;;19.38;52.21
19890;BME280;10107;51.198;6.824;2023-05-20T08:34:26;-21837.91;;;20.00;51.19
19890;BME280;10107;51.198;6.824;2023-05-20T08:38:28;-21845.72;;;20.30;49.85
19890;BME280;10107;51.198;6.824;2023-05-20T08:42:31;-21850.41;;;20.49;48.75
19890;BME280;10107;51.198;6.824;2023-05-20T08:46:33;-21843.38;;;20.21;49.39
19890;BME280;10107;51.198;6.824;2023-05-20T08:50:37;-21861.09;;;20.91;48.35
19890;BME280;10107;51.198;6.824;2023-05-20T08:54:43;-21865.00;;;21.06;48.07
19890;BME280;10107;51.198;6.824;2023-05-20T08:58:46;-21876.31;;;21.51;45.99
19890;BME280;10107;51.198;6.824;2023-05-20T09:02:48;-21877.75;;;21.57;46.37
19890;BME280;10107;51.198;6.824;2023-05-20T09:06:52;-21906.84;;;22.71;43.77
19890;BME280;10107;51.198;6.824;2023-05-20T09:10:54;-21930.94;;;23.67;41.06
19890;BME280;10107;51.198;6.824;2023-05-20T09:14:57;-21931.72;;;23.70;41.71
19890;BME280;10107;51.198;6.824;2023-05-20T09:18:59;-21946.72;;;24.29;40.01
19890;BME280;10107;51.198;6.824;2023-05-20T09:23:02;-21949.19;;;24.39;39.57
19890;BME280;10107;51.198;6.824;2023-05-20T09:27:04;-21929.66;;;23.62;41.11
19890;BME280;10107;51.198;6.824;2023-05-20T09:31:07;-21905.53;;;22.66;42.95
19890;BME280;10107;51.198;6.824;2023-05-20T09:35:12;-21904.75;;;22.63;42.47
19890;BME280;10107;51.198;6.824;2023-05-20T09:39:16;-21895.94;;;22.28;43.69
19890;BME280;10107;51.198;6.824;2023-05-20T09:43:20;-21885.03;;;21.85;45.08
19890;BME280;10107;51.198;6.824;2023-05-20T09:47:24;-21877.22;;;21.54;46.57
19890;BME280;10107;51.198;6.824;2023-05-20T09:51:27;-21887.88;;;21.97;45.43
19890;BME280;10107;51.198;6.824;2023-05-20T09:55:31;-21906.84;;;22.71;44.46
19890;BME280;10107;51.198;6.824;2023-05-20T09:59:36;-21896.31;;;22.30;44.22
19890;BME280;10107;51.198;6.824;2023-05-20T10:03:39;-21924.59;;;23.42;42.32
19890;BME280;10107;51.198;6.824;2023-05-20T10:12:26;-21944.78;;;24.22;40.31
19890;BME280;10107;51.198;6.824;2023-05-20T10:16:43;-21957.97;;;24.74;39.01
19890;BME280;10107;51.198;6.824;2023-05-20T10:20:48;-21955.53;;;24.64;38.68
19890;BME280;10107;51.198;6.824;2023-05-20T10:24:57;-21935.22;;;23.84;40.93
19890;BME280;10107;51.198;6.824;2023-05-20T10:28:59;-21939.22;;;24.00;40.51
19890;BME280;10107;51.198;6.824;2023-05-20T10:33:03;-21935.09;;;23.83;40.34
19890;BME280;10107;51.198;6.824;2023-05-20T10:37:07;-21912.94;;;22.96;42.63
19890;BME280;10107;51.198;6.824;2023-05-20T10:41:09;-21908.66;;;22.79;43.08
19890;BME280;10107;51.198;6.824;2023-05-20T10:45:11;-21890.22;;;22.06;44.88
19890;BME280;10107;51.198;6.824;2023-05-20T10:49:19;-21875.78;;;21.49;46.53
19890;BME280;10107;51.198;6.824;2023-05-20T10:53:23;-21864.88;;;21.06;48.16
19890;BME280;10107;51.198;6.824;2023-05-20T10:57:25;-21858.50;;;20.81;48.96
19890;BME280;10107;51.198;6.824;2023-05-20T11:01:27;-21846.25;;;20.32;50.98
19890;BME280;10107;51.198;6.824;2023-05-20T11:05:29;-21838.69;;;20.03;51.73
19890;BME280;10107;51.198;6.824;2023-05-20T11:09:33;-21834.25;;;19.85;53.40
19890;BME280;10107;51.198;6.824;2023-05-20T11:13:34;-21838.16;;;20.01;52.97
19890;BME280;10107;51.198;6.824;2023-05-20T11:17:36;-21836.47;;;19.94;54.26
19890;BME280;10107;51.198;6.824;2023-05-20T11:21:41;-21849.75;;;20.46;52.49
19890;BME280;10107;51.198;6.824;2023-05-20T11:25:45;-21857.19;;;20.75;50.87
19890;BME280;10107;51.198;6.824;2023-05-20T11:29:48;-21858.09;;;20.79;50.82
19890;BME280;10107;51.198;6.824;2023-05-20T11:33:51;-21860.19;;;20.87;50.70
19890;BME280;10107;51.198;6.824;2023-05-20T11:37:54;-21878.41;;;21.59;49.53
19890;BME280;10107;51.198;6.824;2023-05-20T11:41:58;-21877.63;;;21.56;48.18
19890;BME280;10107;51.198;6.824;2023-05-20T11:46:00;-21882.69;;;21.76;47.96
19890;BME280;10107;51.198;6.824;2023-05-20T11:50:01;-21896.44;;;22.30;46.85
19890;BME280;10107;51.198;6.824;2023-05-20T11:54:05;-21931.97;;;23.71;44.26
19890;BME280;10107;51.198;6.824;2023-05-20T11:58:08;-21936.38;;;23.88;43.09
19890;BME280;10107;51.198;6.824;2023-05-20T12:02:10;-21944.16;;;24.19;42.76
19890;BME280;10107;51.198;6.824;2023-05-20T12:06:12;-21953.97;;;24.58;41.74
19890;BME280;10107;51.198;6.824;2023-05-20T12:10:14;-21957.97;;;24.74;41.24
19890;BME280;10107;51.198;6.824;2023-05-20T12:14:17;-21972.19;;;25.31;41.29
19890;BME280;10107;51.198;6.824;2023-05-20T12:18:18;-21952.16;;;24.51;41.47
19890;BME280;10107;51.198;6.824;2023-05-20T12:22:20;-21936.66;;;23.89;42.90
19890;BME280;10107;51.198;6.824;2023-05-20T12:26:22;-21938.19;;;23.96;43.58
19890;BME280;10107;51.198;6.824;2023-05-20T12:30:26;-21932.88;;;23.75;44.42
19890;BME280;10107;51.198;6.824;2023-05-20T12:34:27;-21926.41;;;23.49;44.15
19890;BME280;10107;51.198;6.824;2023-05-20T12:38:29;-21926.53;;;23.49;44.28
19890;BME280;10107;51.198;6.824;2023-05-20T12:42:31;-21914.34;;;23.01;44.82
19890;BME280;10107;51.198;6.824;2023-05-20T12:46:35;-21920.44;;;23.25;45.07
19890;BME280;10107;51.198;6.824;2023-05-20T12:50:37;-21923.03;;;23.36;44.69
19890;BME280;10107;51.198;6.824;2023-05-20T12:54:39;-21910.06;;;22.84;45.92
19890;BME280;10107;51.198;6.824;2023-05-20T12:58:41;-21913.56;;;22.98;46.43
19890;BME280;10107;51.198;6.824;2023-05-20T13:02:44;-21921.88;;;23.31;45.53
19890;BME280;10107;51.198;6.824;2023-05-20T13:06:45;-21912.16;;;22.92;45.48
19890;BME280;10107;51.198;6.824;2023-05-20T13:10:47;-21913.19;;;22.97;45.99
19890;BME280;10107;51.198;6.824;2023-05-20T13:14:49;-21915.91;;;23.07;45.66
19890;BME280;10107;51.198;6.824;2023-05-20T13:18:52;-21914.09;;;23.00;44.97
19890;BME280;10107;51.198;6.824;2023-05-20T13:22:54;-21912.81;;;22.95;45.79
19890;BME280;10107;51.198;6.824;2023-05-20T13:26:55;-21914.88;;;23.03;46.06
19890;BME280;10107;51.198;6.824;2023-05-20T13:30:58;-21917.34;;;23.13;45.67
19890;BME280;10107;51.198;6.824;2023-05-20T13:35:02;-21926.41;;;23.49;45.49
19890;BME280;10107;51.198;6.824;2023-05-20T13:39:04;-21929.38;;;23.61;44.12
19890;BME280;10107;51.198;6.824;2023-05-20T13:43:05;-21916.94;;;23.11;44.51
19890;BME280;10107;51.198;6.824;2023-05-20T13:47:07;-21912.53;;;22.94;45.16
19890;BME280;10107;51.198;6.824;2023-05-20T13:51:10;-21905.53;;;22.66;45.82
19890;BME280;10107;51.198;6.824;2023-05-20T13:55:12;-21910.47;;;22.86;45.49
19890;BME280;10107;51.198;6.824;2023-05-20T13:59:13;-21911.38;;;22.89;46.64
19890;BME280;10107;51.198;6.824;2023-05-20T14:03:15;-21914.75;;;23.03;46.11
19890;BME280;10107;51.198;6.824;2023-05-20T14:07:18;-21909.44;;;22.82;45.93
19890;BME280;10107;51.198;6.824;2023-05-20T14:11:20;-21909.03;;;22.80;46.67
19890;BME280;10107;51.198;6.824;2023-05-20T14:15:21;-21906.72;;;22.71;46.66
19890;BME280;10107;51.198;6.824;2023-05-20T14:19:23;-21902.03;;;22.52;47.26
19890;BME280;10107;51.198;6.824;2023-05-20T14:23:26;-21902.69;;;22.55;47.74
19890;BME280;10107;51.198;6.824;2023-05-20T14:27:28;-21923.94;;;23.39;45.75
19890;BME280;10107;51.198;6.824;2023-05-20T14:31:29;-21944.41;;;24.20;43.40
19890;BME280;10107;51.198;6.824;2023-05-20T14:35:31;-21930.94;;;23.67;44.16
19890;BME280;10107;51.198;6.824;2023-05-20T14:39:34;-21912.53;;;22.94;46.48
19890;BME280;10107;51.198;6.824;2023-05-20T14:43:36;-21900.88;;;22.48;47.82
19890;BME280;10107;51.198;6.824;2023-05-20T14:47:37;-21883.59;;;21.80;48.70
19890;BME280;10107;51.198;6.824;2023-05-20T14:51:40;-21873.06;;;21.38;51.44
19890;BME280;10107;51.198;6.824;2023-05-20T14:55:43;-21887.22;;;21.94;49.90
19890;BME280;10107;51.198;6.824;2023-05-20T14:59:44;-21879.94;;;21.65;49.46
19890;BME280;10107;51.198;6.824;2023-05-20T15:03:46;-21876.19;;;21.50;49.81
19890;BME280;10107;51.198;6.824;2023-05-20T15:07:49;-21878.25;;;21.59;49.57
19890;BME280;10107;51.198;6.824;2023-05-20T15:11:52;-21878.78;;;21.61;49.86
19890;BME280;10107;51.198;6.824;2023-05-20T15:15:54;-21880.75;;;21.68;48.73
19890;BME280;10107;51.198;6.824;2023-05-20T15:19:55;-21888.53;;;21.99;47.19
19890;BME280;10107;51.198;6.824;2023-05-20T15:23:57;-21882.56;;;21.75;47.19
19890;BME280;10107;51.198;6.824;2023-05-20T15:28:00;-21875.16;;;21.46;48.76
19890;BME280;10107;51.198;6.824;2023-05-20T15:32:02;-21880.47;;;21.67;48.05
19890;BME280;10107;51.198;6.824;2023-05-20T15:36:04;-21870.59;;;21.28;49.74
19890;BME280;10107;51.198;6.824;2023-05-20T15:40:07;-21863.16;;;20.99;51.03
19890;BME280;10107;51.198;6.824;2023-05-20T15:44:10;-21865.38;;;21.08;51.73
19890;BME280;10107;51.198;6.824;2023-05-20T15:48:12;-21860.84;;;20.90;51.70
19890;BME280;10107;51.198;6.824;2023-05-20T15:52:14;-21857.06;;;20.75;52.08
19890;BME280;10107;51.198;6.824;2023-05-20T15:56:16;-21852.75;;;20.58;52.55
19890;BME280;10107;51.198;6.824;2023-05-20T16:00:20;-21846.91;;;20.35;53.01
19890;BME280;10107;51.198;6.824;2023-05-20T16:04:22;-21842.34;;;20.17;53.95
19890;BME280;10107;51.198;6.824;2023-05-20T16:08:23;-21844.03;;;20.24;54.27
19890;BME280;10107;51.198;6.824;2023-05-20T16:12:25;-21847.03;;;20.35;53.99
19890;BME280;10107;51.198;6.824;2023-05-20T16:16:28;-21843.25;;;20.21;53.39
19890;BME280;10107;51.198;6.824;2023-05-20T16:20:30;-21834.78;;;19.87;55.02
19890;BME280;10107;51.198;6.824;2023-05-20T16:24:32;-21829.28;;;19.66;56.14
19890;BME280;10107;51.198;6.824;2023-05-20T16:28:33;-21828.00;;;19.61;56.55
19890;BME280;10107;51.198;6.824;2023-05-20T16:32:36;-21824.19;;;19.46;57.37
19890;BME280;10107;51.198;6.824;2023-05-20T16:36:38;-21818.19;;;19.22;58.66
19890;BME280;10107;51.198;6.824;2023-05-20T16:40:40;-21817.41;;;19.19;58.98
19890;BME280;10107;51.198;6.824;2023-05-20T16:44:42;-21816.09;;;19.14;59.25
19890;BME280;10107;51.198;6.824;2023-05-20T16:48:45;-21812.84;;;19.01;60.02
19890;BME280;10107;51.198;6.824;2023-05-20T16:52:46;-21813.63;;;19.04;60.09
19890;BME280;10107;51.198;6.824;2023-05-20T16:56:48;-21810.50;;;18.92;61.06
19890;BME280;10107;51.198;6.824;2023-05-20T17:00:50;-21809.59;;;18.88;60.90
19890;BME280;10107;51.198;6.824;2023-05-20T17:04:53;-21811.53;;;18.96;61.26
19890;BME280;10107;51.198;6.824;2023-05-20T17:08:56;-21812.31;;;18.99;61.36
19890;BME280;10107;51.198;6.824;2023-05-20T17:12:58;-21812.19;;;18.98;60.91
19890;BME280;10107;51.198;6.824;2023-05-20T17:17:00;-21811.53;;;18.96;61.17
19890;BME280;10107;51.198;6.824;2023-05-20T17:21:04;-21809.06;;;18.86;61.72
19890;BME280;10107;51.198;6.824;2023-05-20T17:25:06;-21805.13;;;18.71;62.07
19890;BME280;10107;51.198;6.824;2023-05-20T17:29:08;-21802.66;;;18.61;62.75
19890;BME280;10107;51.198;6.824;2023-05-20T17:33:10;-21799.50;;;18.49;63.74
19890;BME280;10107;51.198;6.824;2023-05-20T17:37:13;-21797.56;;;18.41;64.27
19890;BME280;10107;51.198;6.824;2023-05-20T17:41:15;-21794.69;;;18.30;64.50
19890;BME280;10107;51.198;6.824;2023-05-20T17:45:17;-21793.25;;;18.24;65.30
19890;BME280;10107;51.198;6.824;2023-05-20T17:49:19;-21793.75;;;18.26;65.88
19890;BME280;10107;51.198;6.824;2023-05-20T17:53:22;-21794.94;;;18.31;65.98
19890;BME280;10107;51.198;6.824;2023-05-20T17:57:24;-21794.28;;;18.28;66.40
19890;BME280;10107;51.198;6.824;2023-05-20T18:01:27;-21792.72;;;18.22;66.36
19890;BME280;10107;51.198;6.824;2023-05-20T18:05:29;-21789.97;;;18.11;66.86
19890;BME280;10107;51.198;6.824;2023-05-20T18:09:32;-21787.75;;;18.03;67.54
19890;BME280;10107;51.198;6.824;2023-05-20T18:13:33;-21786.44;;;17.97;67.41
19890;BME280;10107;51.198;6.824;2023-05-20T18:17:35;-21785.13;;;17.92;67.31
19890;BME280;10107;51.198;6.824;2023-05-20T18:21:37;-21782.78;;;17.83;67.59
19890;BME280;10107;51.198;6.824;2023-05-20T18:25:41;-21780.16;;;17.73;67.99
19890;BME280;10107;51.198;6.824;2023-05-20T18:29:42;-21777.53;;;17.62;68.44
19890;BME280;10107;51.198;6.824;2023-05-20T18:33:44;-21774.25;;;17.50;68.99
19890;BME280;10107;51.198;6.824;2023-05-20T18:37:46;-21773.34;;;17.46;69.58
19890;BME280;10107;51.198;6.824;2023-05-20T18:41:49;-21771.38;;;17.38;70.29
19890;BME280;10107;51.198;6.824;2023-05-20T18:45:51;-21770.84;;;17.36;70.49
19890;BME280;10107;51.198;6.824;2023-05-20T18:49:52;-21770.59;;;17.35;71.16
19890;BME280;10107;51.198;6.824;2023-05-20T18:53:55;-21769.69;;;17.32;71.44
19890;BME280;10107;51.198;6.824;2023-05-20T18:57:58;-21766.41;;;17.19;71.90
19890;BME280;10107;51.198;6.824;2023-05-20T19:01:59;-21764.31;;;17.11;73.10
19890;BME280;10107;51.198;6.824;2023-05-20T19:06:01;-21762.34;;;17.03;73.61
19890;BME280;10107;51.198;6.824;2023-05-20T19:10:03;-21758.81;;;16.89;75.03
19890;BME280;10107;51.198;6.824;2023-05-20T19:14:07;-21755.00;;;16.74;75.81
19890;BME280;10107;51.198;6.824;2023-05-20T19:18:08;-21751.06;;;16.59;77.12
19890;BME280;10107;51.198;6.824;2023-05-20T19:22:10;-21747.78;;;16.46;77.98
19890;BME280;10107;51.198;6.824;2023-05-20T19:26:12;-21745.28;;;16.36;78.95
19890;BME280;10107;51.198;6.824;2023-05-20T19:30:15;-21742.66;;;16.26;80.10
19890;BME280;10107;51.198;6.824;2023-05-20T19:34:18;-21740.03;;;16.16;81.13
19890;BME280;10107;51.198;6.824;2023-05-20T19:38:19;-21737.41;;;16.06;81.41
19890;BME280;10107;51.198;6.824;2023-05-20T19:42:21;-21734.78;;;15.95;82.32
19890;BME280;10107;51.198;6.824;2023-05-20T19:46:24;-21732.69;;;15.87;83.63
19890;BME280;10107;51.198;6.824;2023-05-20T19:50:26;-21730.34;;;15.78;84.88
19890;BME280;10107;51.198;6.824;2023-05-20T19:54:27;-21728.34;;;15.70;85.49
19890;BME280;10107;51.198;6.824;2023-05-20T19:58:29;-21726.00;;;15.61;86.48
19890;BME280;10107;51.198;6.824;2023-05-20T20:02:33;-21724.16;;;15.54;87.14
19890;BME280;10107;51.198;6.824;2023-05-20T20:06:34;-21722.06;;;15.45;87.81
19890;BME280;10107;51.198;6.824;2023-05-20T20:10:36;-21720.59;;;15.40;88.34
19890;BME280;10107;51.198;6.824;2023-05-20T20:14:38;-21719.16;;;15.34;89.17
19890;BME280;10107;51.198;6.824;2023-05-20T20:18:41;-21718.25;;;15.31;89.76
19890;BME280;10107;51.198;6.824;2023-05-20T20:22:43;-21716.94;;;15.25;90.13
19890;BME280;10107;51.198;6.824;2023-05-20T20:26:45;-21715.88;;;15.21;90.73
19890;BME280;10107;51.198;6.824;2023-05-20T20:30:47;-21714.94;;;15.18;91.01
19890;BME280;10107;51.198;6.824;2023-05-20T20:34:50;-21714.16;;;15.15;91.62
19890;BME280;10107;51.198;6.824;2023-05-20T20:38:51;-21712.72;;;15.09;91.81
19890;BME280;10107;51.198;6.824;2023-05-20T20:42:53;-21711.53;;;15.04;92.83
19890;BME280;10107;51.198;6.824;2023-05-20T20:46:57;-21710.09;;;14.99;93.49
19890;BME280;10107;51.198;6.824;2023-05-20T20:51:00;-21709.16;;;14.95;93.83
19890;BME280;10107;51.198;6.824;2023-05-20T20:55:02;-21707.97;;;14.91;94.13
19890;BME280;10107;51.198;6.824;2023-05-20T20:59:04;-21706.81;;;14.86;94.98
19890;BME280;10107;51.198;6.824;2023-05-20T21:03:06;-21705.22;;;14.80;95.83
19890;BME280;10107;51.198;6.824;2023-05-20T21:07:09;-21703.78;;;14.74;96.52
19890;BME280;10107;51.198;6.824;2023-05-20T21:11:11;-21702.84;;;14.71;96.72
19890;BME280;10107;51.198;6.824;2023-05-20T21:15:13;-21702.06;;;14.68;97.41